sensor_id;sensor_type;location;lat;lon;timestamp;P1;durP1;ratioP1;P2;durP2;ratioP2
9240;SDS011;53485;49.326;9.738;2022-08-25T00:02:13;5.00;;;4.60;;
9240;SDS011;53485;49.326;9.738;2022-08-25T00:04:40;5.47;;;5.07;;
9240;SDS011;53485;49.326;9.738;2022-08-25T00:07:07;6.03;;;5.43;;
9240;SDS011;53485;49.326;9.738;2022-08-25T00:09:35;5.57;;;4.97;;
9240;SDS011;53485;49.326;9.738;2022-08-25T00:12:03;5.87;;;5.37;;
9240;SDS011;53485;49.326;9.738;2022-08-25T00:14:31;5.17;;;4.67;;
9240;SDS011;53485;49.326;9.738;2022-08-25T00:16:56;6.10;;;5.37;;
9240;SDS011;53485;49.326;9.738;2022-08-25T00:19:25;5.17;;;4.77;;
9240;SDS011;53485;49.326;9.738;2022-08-25T00:21:51;5.60;;;5.10;;
9240;SDS011;53485;49.326;9.738;2022-08-25T00:24:19;5.57;;;5.17;;
9240;SDS011;53485;49.326;9.738;2022-08-25T00:26:46;6.07;;;5.57;;
9240;SDS011;53485;49.326;9.738;2022-08-25T00:29:12;6.57;;;5.33;;
9240;SDS011;53485;49.326;9.738;2022-08-25T00:31:39;8.17;;;5.77;;
9240;SDS011;53485;49.326;9.738;2022-08-25T00:34:08;5.90;;;5.40;;
9240;SDS011;53485;49.326;9.738;2022-08-25T00:36:33;5.80;;;5.30;;
9240;SDS011;53485;49.326;9.738;2022-08-25T00:39:01;5.80;;;5.30;;
9240;SDS011;53485;49.326;9.738;2022-08-25T00:41:28;7.77;;;5.63;;
9240;SDS011;53485;49.326;9.738;2022-08-25T00:43:56;6.70;;;6.10;;
9240;SDS011;53485;49.326;9.738;2022-08-25T00:46:24;6.57;;;5.97;;
9240;SDS011;53485;49.326;9.738;2022-08-25T00:48:51;6.40;;;5.80;;
9240;SDS011;53485;49.326;9.738;2022-08-25T00:51:18;7.27;;;6.47;;
9240;SDS011;53485;49.326;9.738;2022-08-25T00:53:43;7.17;;;6.20;;
9240;SDS011;53485;49.326;9.738;2022-08-25T00:56:10;6.80;;;6.10;;
9240;SDS011;53485;49.326;9.738;2022-08-25T00:58:37;6.97;;;6.23;;
9240;SDS011;53485;49.326;9.738;2022-08-25T01:01:04;5.87;;;5.40;;
9240;SDS011;53485;49.326;9.738;2022-08-25T01:03:31;7.10;;;6.47;;
9240;SDS011;53485;49.326;9.738;2022-08-25T01:05:59;6.23;;;5.67;;
9240;SDS011;53485;49.326;9.738;2022-08-25T01:08:25;7.07;;;6.40;;
9240;SDS011;53485;49.326;9.738;2022-08-25T01:10:52;7.20;;;6.50;;
9240;SDS011;53485;49.326;9.738;2022-08-25T01:13:23;7.13;;;6.53;;
9240;SDS011;53485;49.326;9.738;2022-08-25T01:15:49;8.00;;;6.33;;
9240;SDS011;53485;49.326;9.738;2022-08-25T01:18:16;7.63;;;6.93;;
9240;SDS011;53485;49.326;9.738;2022-08-25T01:20:47;10.10;;;6.87;;
9240;SDS011;53485;49.326;9.738;2022-08-25T01:23:10;7.67;;;6.87;;
9240;SDS011;53485;49.326;9.738;2022-08-25T01:25:44;7.87;;;6.10;;
9240;SDS011;53485;49.326;9.738;2022-08-25T01:28:11;6.77;;;6.17;;
9240;SDS011;53485;49.326;9.738;2022-08-25T01:30:38;8.47;;;6.47;;
9240;SDS011;53485;49.326;9.738;2022-08-25T01:33:05;7.80;;;7.00;;
9240;SDS011;53485;49.326;9.738;2022-08-25T01:35:31;7.23;;;6.53;;
9240;SDS011;53485;49.326;9.738;2022-08-25T01:37:59;9.20;;;7.73;;
9240;SDS011;53485;49.326;9.738;2022-08-25T01:40:24;7.27;;;6.57;;
9240;SDS011;53485;49.326;9.738;2022-08-25T01:42:53;6.47;;;5.83;;
9240;SDS011;53485;49.326;9.738;2022-08-25T01:45:38;7.37;;;6.40;;
9240;SDS011;53485;49.326;9.738;2022-08-25T01:48:04;7.13;;;6.33;;
9240;SDS011;53485;49.326;9.738;2022-08-25T01:50:30;7.20;;;6.60;;
9240;SDS011;53485;49.326;9.738;2022-08-25T01:53:02;7.07;;;6.47;;
9240;SDS011;53485;49.326;9.738;2022-08-25T01:55:32;8.27;;;7.30;;
9240;SDS011;53485;49.326;9.738;2022-08-25T01:57:59;7.70;;;6.93;;
9240;SDS011;53485;49.326;9.738;2022-08-25T02:00:26;7.37;;;6.67;;
9240;SDS011;53485;49.326;9.738;2022-08-25T02:02:53;6.60;;;6.00;;
9240;SDS011;53485;49.326;9.738;2022-08-25T02:05:21;8.13;;;6.33;;
9240;SDS011;53485;49.326;9.738;2022-08-25T02:07:48;7.63;;;6.77;;
9240;SDS011;53485;49.326;9.738;2022-08-25T02:10:15;6.63;;;6.03;;
9240;SDS011;53485;49.326;9.738;2022-08-25T02:12:42;6.63;;;6.00;;
9240;SDS011;53485;49.326;9.738;2022-08-25T02:15:10;7.07;;;6.37;;
9240;SDS011;53485;49.326;9.738;2022-08-25T02:17:37;9.70;;;6.77;;
9240;SDS011;53485;49.326;9.738;2022-08-25T02:20:05;7.77;;;6.10;;
9240;SDS011;53485;49.326;9.738;2022-08-25T02:22:32;8.10;;;6.93;;
9240;SDS011;53485;49.326;9.738;2022-08-25T02:24:59;8.70;;;6.93;;
9240;SDS011;53485;49.326;9.738;2022-08-25T02:27:26;8.00;;;7.20;;
9240;SDS011;53485;49.326;9.738;2022-08-25T02:29:53;9.33;;;7.20;;
9240;SDS011;53485;49.326;9.738;2022-08-25T02:32:20;9.60;;;8.40;;
9240;SDS011;53485;49.326;9.738;2022-08-25T02:34:48;8.03;;;7.23;;
9240;SDS011;53485;49.326;9.738;2022-08-25T02:37:15;7.60;;;6.90;;
9240;SDS011;53485;49.326;9.738;2022-08-25T02:39:43;7.77;;;6.97;;
9240;SDS011;53485;49.326;9.738;2022-08-25T02:42:11;8.40;;;7.53;;
9240;SDS011;53485;49.326;9.738;2022-08-25T02:44:38;7.47;;;6.40;;
9240;SDS011;53485;49.326;9.738;2022-08-25T02:47:05;9.20;;;8.30;;
9240;SDS011;53485;49.326;9.738;2022-08-25T02:49:32;10.17;;;8.33;;
9240;SDS011;53485;49.326;9.738;2022-08-25T02:51:59;8.73;;;7.83;;
9240;SDS011;53485;49.326;9.738;2022-08-25T02:54:26;8.10;;;7.33;;
9240;SDS011;53485;49.326;9.738;2022-08-25T02:56:54;11.67;;;8.47;;
9240;SDS011;53485;49.326;9.738;2022-08-25T02:59:21;14.40;;;8.97;;
9240;SDS011;53485;49.326;9.738;2022-08-25T03:01:49;9.40;;;8.50;;
9240;SDS011;53485;49.326;9.738;2022-08-25T03:04:16;9.93;;;8.57;;
9240;SDS011;53485;49.326;9.738;2022-08-25T03:06:44;10.53;;;9.53;;
9240;SDS011;53485;49.326;9.738;2022-08-25T03:09:10;11.90;;;10.03;;
9240;SDS011;53485;49.326;9.738;2022-08-25T03:11:37;11.63;;;10.43;;
9240;SDS011;53485;49.326;9.738;2022-08-25T03:14:05;11.23;;;10.03;;
9240;SDS011;53485;49.326;9.738;2022-08-25T03:16:31;14.07;;;10.67;;
9240;SDS011;53485;49.326;9.738;2022-08-25T03:18:59;11.00;;;9.90;;
9240;SDS011;53485;49.326;9.738;2022-08-25T03:21:26;12.13;;;10.57;;
9240;SDS011;53485;49.326;9.738;2022-08-25T03:23:52;11.50;;;9.70;;
9240;SDS011;53485;49.326;9.738;2022-08-25T03:26:19;10.97;;;9.87;;
9240;SDS011;53485;49.326;9.738;2022-08-25T03:28:52;10.67;;;9.57;;
9240;SDS011;53485;49.326;9.738;2022-08-25T03:31:19;10.20;;;9.10;;
9240;SDS011;53485;49.326;9.738;2022-08-25T03:33:46;10.30;;;9.20;;
9240;SDS011;53485;49.326;9.738;2022-08-25T03:36:13;10.80;;;9.70;;
9240;SDS011;53485;49.326;9.738;2022-08-25T03:38:40;12.73;;;10.10;;
9240;SDS011;53485;49.326;9.738;2022-08-25T03:41:12;12.57;;;10.33;;
9240;SDS011;53485;49.326;9.738;2022-08-25T03:43:39;11.87;;;9.53;;
9240;SDS011;53485;49.326;9.738;2022-08-25T03:46:06;10.33;;;8.70;;
9240;SDS011;53485;49.326;9.738;2022-08-25T03:48:33;11.17;;;9.50;;
9240;SDS011;53485;49.326;9.738;2022-08-25T03:51:00;11.17;;;10.03;;
9240;SDS011;53485;49.326;9.738;2022-08-25T03:53:28;12.70;;;10.43;;
9240;SDS011;53485;49.326;9.738;2022-08-25T03:55:55;10.27;;;9.27;;
9240;SDS011;53485;49.326;9.738;2022-08-25T03:58:23;11.57;;;10.07;;
9240;SDS011;53485;49.326;9.738;2022-08-25T04:00:50;12.27;;;10.17;;
9240;SDS011;53485;49.326;9.738;2022-08-25T04:03:17;11.43;;;9.80;;
9240;SDS011;53485;49.326;9.738;2022-08-25T04:05:44;12.43;;;10.93;;
9240;SDS011;53485;49.326;9.738;2022-08-25T04:08:12;10.93;;;9.73;;
9240;SDS011;53485;49.326;9.738;2022-08-25T04:10:39;14.57;;;11.20;;
9240;SDS011;53485;49.326;9.738;2022-08-25T04:13:06;9.17;;;8.03;;
9240;SDS011;53485;49.326;9.738;2022-08-25T04:15:34;11.73;;;10.20;;
9240;SDS011;53485;49.326;9.738;2022-08-25T04:18:01;13.00;;;10.50;;
9240;SDS011;53485;49.326;9.738;2022-08-25T04:20:28;14.07;;;10.77;;
9240;SDS011;53485;49.326;9.738;2022-08-25T04:22:55;16.03;;;12.03;;
9240;SDS011;53485;49.326;9.738;2022-08-25T04:25:22;12.10;;;10.17;;
9240;SDS011;53485;49.326;9.738;2022-08-25T04:27:50;11.50;;;9.90;;
9240;SDS011;53485;49.326;9.738;2022-08-25T04:30:17;11.27;;;9.83;;
9240;SDS011;53485;49.326;9.738;2022-08-25T04:32:45;14.80;;;11.67;;
9240;SDS011;53485;49.326;9.738;2022-08-25T04:35:12;13.57;;;11.80;;
9240;SDS011;53485;49.326;9.738;2022-08-25T04:37:39;14.63;;;11.60;;
9240;SDS011;53485;49.326;9.738;2022-08-25T04:40:06;11.97;;;10.57;;
9240;SDS011;53485;49.326;9.738;2022-08-25T04:42:34;13.10;;;11.37;;
9240;SDS011;53485;49.326;9.738;2022-08-25T04:45:01;17.57;;;11.03;;
9240;SDS011;53485;49.326;9.738;2022-08-25T04:47:28;15.00;;;11.80;;
9240;SDS011;53485;49.326;9.738;2022-08-25T04:49:55;14.10;;;10.60;;
9240;SDS011;53485;49.326;9.738;2022-08-25T04:52:22;11.20;;;9.83;;
9240;SDS011;53485;49.326;9.738;2022-08-25T04:54:50;11.37;;;10.13;;
9240;SDS011;53485;49.326;9.738;2022-08-25T04:57:17;12.07;;;10.10;;
9240;SDS011;53485;49.326;9.738;2022-08-25T04:59:45;13.87;;;11.00;;
9240;SDS011;53485;49.326;9.738;2022-08-25T05:02:12;14.13;;;12.43;;
9240;SDS011;53485;49.326;9.738;2022-08-25T05:04:39;17.20;;;10.47;;
9240;SDS011;53485;49.326;9.738;2022-08-25T05:07:06;10.80;;;9.50;;
9240;SDS011;53485;49.326;9.738;2022-08-25T05:09:34;13.17;;;9.43;;
9240;SDS011;53485;49.326;9.738;2022-08-25T05:12:01;14.80;;;11.17;;
9240;SDS011;53485;49.326;9.738;2022-08-25T05:14:28;11.93;;;9.70;;
9240;SDS011;53485;49.326;9.738;2022-08-25T05:16:55;10.57;;;9.47;;
9240;SDS011;53485;49.326;9.738;2022-08-25T05:19:22;11.87;;;9.80;;
9240;SDS011;53485;49.326;9.738;2022-08-25T05:21:49;11.00;;;9.93;;
9240;SDS011;53485;49.326;9.738;2022-08-25T05:24:16;11.70;;;10.10;;
9240;SDS011;53485;49.326;9.738;2022-08-25T05:26:43;13.00;;;9.73;;
9240;SDS011;53485;49.326;9.738;2022-08-25T05:29:10;12.70;;;10.07;;
9240;SDS011;53485;49.326;9.738;2022-08-25T05:31:38;13.23;;;8.70;;
9240;SDS011;53485;49.326;9.738;2022-08-25T05:34:06;13.07;;;9.63;;
9240;SDS011;53485;49.326;9.738;2022-08-25T05:36:32;11.23;;;10.00;;
9240;SDS011;53485;49.326;9.738;2022-08-25T05:38:59;11.63;;;10.30;;
9240;SDS011;53485;49.326;9.738;2022-08-25T05:41:28;13.27;;;10.63;;
9240;SDS011;53485;49.326;9.738;2022-08-25T05:43:53;11.70;;;10.23;;
9240;SDS011;53485;49.326;9.738;2022-08-25T05:46:20;11.67;;;10.40;;
9240;SDS011;53485;49.326;9.738;2022-08-25T05:48:47;11.27;;;10.07;;
9240;SDS011;53485;49.326;9.738;2022-08-25T05:51:13;10.60;;;9.50;;
9240;SDS011;53485;49.326;9.738;2022-08-25T05:53:41;11.23;;;9.97;;
9240;SDS011;53485;49.326;9.738;2022-08-25T05:56:07;12.10;;;10.60;;
9240;SDS011;53485;49.326;9.738;2022-08-25T05:58:34;10.93;;;9.73;;
9240;SDS011;53485;49.326;9.738;2022-08-25T06:01:01;10.57;;;9.47;;
9240;SDS011;53485;49.326;9.738;2022-08-25T06:03:43;11.33;;;8.97;;
9240;SDS011;53485;49.326;9.738;2022-08-25T06:06:10;10.23;;;9.20;;
9240;SDS011;53485;49.326;9.738;2022-08-25T06:08:37;11.43;;;10.03;;
9240;SDS011;53485;49.326;9.738;2022-08-25T06:11:04;10.23;;;9.23;;
9240;SDS011;53485;49.326;9.738;2022-08-25T06:13:32;9.53;;;8.60;;
9240;SDS011;53485;49.326;9.738;2022-08-25T06:15:59;8.63;;;7.70;;
9240;SDS011;53485;49.326;9.738;2022-08-25T06:18:26;12.80;;;10.13;;
9240;SDS011;53485;49.326;9.738;2022-08-25T06:20:53;11.03;;;9.07;;
9240;SDS011;53485;49.326;9.738;2022-08-25T06:23:20;9.33;;;8.47;;
9240;SDS011;53485;49.326;9.738;2022-08-25T06:25:49;9.90;;;8.90;;
9240;SDS011;53485;49.326;9.738;2022-08-25T06:28:16;8.17;;;7.37;;
9240;SDS011;53485;49.326;9.738;2022-08-25T06:30:42;8.43;;;7.60;;
9240;SDS011;53485;49.326;9.738;2022-08-25T06:33:10;8.43;;;7.63;;
9240;SDS011;53485;49.326;9.738;2022-08-25T06:35:39;8.57;;;7.83;;
9240;SDS011;53485;49.326;9.738;2022-08-25T06:38:03;9.30;;;8.40;;
9240;SDS011;53485;49.326;9.738;2022-08-25T06:40:31;8.23;;;7.50;;
9240;SDS011;53485;49.326;9.738;2022-08-25T06:42:58;8.20;;;7.50;;
9240;SDS011;53485;49.326;9.738;2022-08-25T06:45:25;8.23;;;7.53;;
9240;SDS011;53485;49.326;9.738;2022-08-25T06:47:53;8.90;;;7.67;;
9240;SDS011;53485;49.326;9.738;2022-08-25T06:50:20;12.37;;;7.53;;
9240;SDS011;53485;49.326;9.738;2022-08-25T06:52:47;9.20;;;7.70;;
9240;SDS011;53485;49.326;9.738;2022-08-25T06:55:14;7.03;;;6.43;;
9240;SDS011;53485;49.326;9.738;2022-08-25T06:57:42;8.63;;;6.37;;
9240;SDS011;53485;49.326;9.738;2022-08-25T07:00:09;7.00;;;6.30;;
9240;SDS011;53485;49.326;9.738;2022-08-25T07:02:37;7.73;;;7.03;;
9240;SDS011;53485;49.326;9.738;2022-08-25T07:05:04;7.67;;;6.83;;
9240;SDS011;53485;49.326;9.738;2022-08-25T07:07:32;7.83;;;7.03;;
9240;SDS011;53485;49.326;9.738;2022-08-25T07:09:59;7.33;;;6.73;;
9240;SDS011;53485;49.326;9.738;2022-08-25T07:12:27;23.47;;;7.80;;
9240;SDS011;53485;49.326;9.738;2022-08-25T07:14:54;11.30;;;7.80;;
9240;SDS011;53485;49.326;9.738;2022-08-25T07:17:22;7.50;;;6.80;;
9240;SDS011;53485;49.326;9.738;2022-08-25T07:19:49;6.77;;;6.27;;
9240;SDS011;53485;49.326;9.738;2022-08-25T07:22:16;6.67;;;6.13;;
9240;SDS011;53485;49.326;9.738;2022-08-25T07:24:44;7.97;;;7.30;;
9240;SDS011;53485;49.326;9.738;2022-08-25T07:27:11;6.57;;;6.07;;
9240;SDS011;53485;49.326;9.738;2022-08-25T07:29:39;8.17;;;5.70;;
9240;SDS011;53485;49.326;9.738;2022-08-25T07:32:06;7.33;;;6.20;;
9240;SDS011;53485;49.326;9.738;2022-08-25T07:34:33;6.67;;;5.90;;
9240;SDS011;53485;49.326;9.738;2022-08-25T07:37:06;7.37;;;6.60;;
9240;SDS011;53485;49.326;9.738;2022-08-25T07:39:33;6.77;;;6.17;;
9240;SDS011;53485;49.326;9.738;2022-08-25T07:42:01;6.60;;;5.93;;
9240;SDS011;53485;49.326;9.738;2022-08-25T07:44:28;6.50;;;5.57;;
9240;SDS011;53485;49.326;9.738;2022-08-25T07:46:55;8.40;;;5.93;;
9240;SDS011;53485;49.326;9.738;2022-08-25T07:49:23;5.50;;;5.10;;
9240;SDS011;53485;49.326;9.738;2022-08-25T07:51:51;6.67;;;5.87;;
9240;SDS011;53485;49.326;9.738;2022-08-25T07:54:17;6.13;;;5.53;;
9240;SDS011;53485;49.326;9.738;2022-08-25T07:56:44;7.90;;;5.77;;
9240;SDS011;53485;49.326;9.738;2022-08-25T07:59:12;5.90;;;5.40;;
9240;SDS011;53485;49.326;9.738;2022-08-25T08:01:39;5.83;;;5.33;;
9240;SDS011;53485;49.326;9.738;2022-08-25T08:04:06;5.20;;;4.80;;
9240;SDS011;53485;49.326;9.738;2022-08-25T08:06:34;5.00;;;4.70;;
9240;SDS011;53485;49.326;9.738;2022-08-25T08:09:02;4.83;;;4.43;;
9240;SDS011;53485;49.326;9.738;2022-08-25T08:11:30;5.00;;;4.60;;
9240;SDS011;53485;49.326;9.738;2022-08-25T08:13:55;5.23;;;4.40;;
9240;SDS011;53485;49.326;9.738;2022-08-25T08:16:23;5.60;;;5.10;;
9240;SDS011;53485;49.326;9.738;2022-08-25T08:18:50;7.18;;;6.50;;
9240;SDS011;53485;49.326;9.738;2022-08-25T08:21:19;5.65;;;5.20;;
9240;SDS011;53485;49.326;9.738;2022-08-25T08:23:46;4.85;;;4.45;;
9240;SDS011;53485;49.326;9.738;2022-08-25T08:26:13;4.62;;;4.22;;
9240;SDS011;53485;49.326;9.738;2022-08-25T08:28:40;5.00;;;4.55;;
9240;SDS011;53485;49.326;9.738;2022-08-25T08:31:08;3.90;;;3.60;;
9240;SDS011;53485;49.326;9.738;2022-08-25T08:33:36;4.72;;;4.43;;
9240;SDS011;53485;49.326;9.738;2022-08-25T08:36:04;4.20;;;4.00;;
9240;SDS011;53485;49.326;9.738;2022-08-25T08:38:31;4.43;;;4.12;;
9240;SDS011;53485;49.326;9.738;2022-08-25T08:41:05;4.60;;;4.30;;
9240;SDS011;53485;49.326;9.738;2022-08-25T08:43:53;5.30;;;4.57;;
9240;SDS011;53485;49.326;9.738;2022-08-25T08:46:20;5.10;;;4.60;;
9240;SDS011;53485;49.326;9.738;2022-08-25T08:48:50;4.65;;;4.35;;
9240;SDS011;53485;49.326;9.738;2022-08-25T08:51:18;4.87;;;4.32;;
9240;SDS011;53485;49.326;9.738;2022-08-25T08:53:51;4.87;;;4.57;;
9240;SDS011;53485;49.326;9.738;2022-08-25T08:56:24;5.90;;;3.87;;
9240;SDS011;53485;49.326;9.738;2022-08-25T08:58:52;4.40;;;4.20;;
9240;SDS011;53485;49.326;9.738;2022-08-25T09:01:26;6.60;;;4.07;;
9240;SDS011;53485;49.326;9.738;2022-08-25T09:04:04;5.30;;;4.40;;
9240;SDS011;53485;49.326;9.738;2022-08-25T09:06:32;4.63;;;4.10;;
9240;SDS011;53485;49.326;9.738;2022-08-25T09:09:00;4.40;;;4.10;;
9240;SDS011;53485;49.326;9.738;2022-08-25T09:14:19;3.40;;;3.20;;
9240;SDS011;53485;49.326;9.738;2022-08-25T09:16:51;3.80;;;3.57;;
9240;SDS011;53485;49.326;9.738;2022-08-25T09:19:40;4.03;;;3.70;;
9240;SDS011;53485;49.326;9.738;2022-08-25T09:22:43;3.30;;;3.05;;
9240;SDS011;53485;49.326;9.738;2022-08-25T09:25:02;3.50;;;3.20;;
9240;SDS011;53485;49.326;9.738;2022-08-25T09:27:33;3.47;;;3.17;;
9240;SDS011;53485;49.326;9.738;2022-08-25T09:30:07;3.30;;;3.00;;
9240;SDS011;53485;49.326;9.738;2022-08-25T09:32:34;3.53;;;3.33;;
9240;SDS011;53485;49.326;9.738;2022-08-25T09:35:00;4.22;;;3.83;;
9240;SDS011;53485;49.326;9.738;2022-08-25T09:37:28;4.50;;;3.30;;
9240;SDS011;53485;49.326;9.738;2022-08-25T09:39:55;2.90;;;2.70;;
9240;SDS011;53485;49.326;9.738;2022-08-25T09:42:44;3.60;;;3.40;;
9240;SDS011;53485;49.326;9.738;2022-08-25T09:44:50;3.03;;;2.83;;
9240;SDS011;53485;49.326;9.738;2022-08-25T09:47:22;3.97;;;3.67;;
9240;SDS011;53485;49.326;9.738;2022-08-25T09:49:55;3.30;;;3.10;;
9240;SDS011;53485;49.326;9.738;2022-08-25T09:57:49;3.45;;;3.25;;
9240;SDS011;53485;49.326;9.738;2022-08-25T10:00:20;3.20;;;2.92;;
9240;SDS011;53485;49.326;9.738;2022-08-25T10:03:22;3.15;;;2.97;;
9240;SDS011;53485;49.326;9.738;2022-08-25T10:05:56;3.53;;;3.33;;
9240;SDS011;53485;49.326;9.738;2022-08-25T10:08:39;8.65;;;3.40;;
9240;SDS011;53485;49.326;9.738;2022-08-25T10:11:06;3.80;;;3.50;;
9240;SDS011;53485;49.326;9.738;2022-08-25T10:13:36;3.42;;;3.22;;
9240;SDS011;53485;49.326;9.738;2022-08-25T10:16:12;3.03;;;2.83;;
9240;SDS011;53485;49.326;9.738;2022-08-25T10:18:37;3.78;;;3.12;;
9240;SDS011;53485;49.326;9.738;2022-08-25T10:21:08;4.95;;;3.35;;
9240;SDS011;53485;49.326;9.738;2022-08-25T10:23:35;3.42;;;3.20;;
9240;SDS011;53485;49.326;9.738;2022-08-25T10:26:03;3.55;;;3.35;;
9240;SDS011;53485;49.326;9.738;2022-08-25T10:28:31;3.40;;;2.95;;
9240;SDS011;53485;49.326;9.738;2022-08-25T10:31:03;2.97;;;2.78;;
9240;SDS011;53485;49.326;9.738;2022-08-25T10:33:33;4.20;;;3.60;;
9240;SDS011;53485;49.326;9.738;2022-08-25T10:36:14;3.25;;;2.95;;
9240;SDS011;53485;49.326;9.738;2022-08-25T10:38:44;3.30;;;3.10;;
9240;SDS011;53485;49.326;9.738;2022-08-25T10:44:17;3.05;;;2.78;;
9240;SDS011;53485;49.326;9.738;2022-08-25T10:46:51;3.20;;;2.90;;
9240;SDS011;53485;49.326;9.738;2022-08-25T10:49:18;3.30;;;3.10;;
9240;SDS011;53485;49.326;9.738;2022-08-25T10:57:31;2.37;;;2.22;;
9240;SDS011;53485;49.326;9.738;2022-08-25T10:59:59;5.10;;;2.70;;
9240;SDS011;53485;49.326;9.738;2022-08-25T11:02:32;5.62;;;2.90;;
9240;SDS011;53485;49.326;9.738;2022-08-25T11:07:53;2.60;;;2.40;;
9240;SDS011;53485;49.326;9.738;2022-08-25T11:10:21;2.78;;;2.55;;
9240;SDS011;53485;49.326;9.738;2022-08-25T11:12:54;2.75;;;2.55;;
9240;SDS011;53485;49.326;9.738;2022-08-25T11:15:26;2.83;;;2.62;;
9240;SDS011;53485;49.326;9.738;2022-08-25T11:17:52;3.10;;;2.75;;
9240;SDS011;53485;49.326;9.738;2022-08-25T11:20:23;3.70;;;3.42;;
9240;SDS011;53485;49.326;9.738;2022-08-25T11:22:51;2.90;;;2.70;;
9240;SDS011;53485;49.326;9.738;2022-08-25T11:25:36;3.10;;;2.90;;
9240;SDS011;53485;49.326;9.738;2022-08-25T11:28:08;2.42;;;2.33;;
9240;SDS011;53485;49.326;9.738;2022-08-25T11:30:35;3.53;;;2.70;;
9240;SDS011;53485;49.326;9.738;2022-08-25T11:33:03;2.75;;;2.65;;
9240;SDS011;53485;49.326;9.738;2022-08-25T11:35:33;3.53;;;3.28;;
9240;SDS011;53485;49.326;9.738;2022-08-25T11:38:07;2.87;;;2.60;;
9240;SDS011;53485;49.326;9.738;2022-08-25T11:40:55;2.85;;;2.65;;
9240;SDS011;53485;49.326;9.738;2022-08-25T11:43:26;2.95;;;2.75;;
9240;SDS011;53485;49.326;9.738;2022-08-25T11:49:06;4.30;;;3.08;;
9240;SDS011;53485;49.326;9.738;2022-08-25T11:51:30;2.47;;;2.37;;
9240;SDS011;53485;49.326;9.738;2022-08-25T11:54:06;3.17;;;2.65;;
9240;SDS011;53485;49.326;9.738;2022-08-25T11:56:33;2.85;;;2.70;;
9240;SDS011;53485;49.326;9.738;2022-08-25T11:58:59;3.37;;;3.12;;
9240;SDS011;53485;49.326;9.738;2022-08-25T12:04:41;3.03;;;2.83;;
9240;SDS011;53485;49.326;9.738;2022-08-25T12:07:17;3.00;;;2.70;;
9240;SDS011;53485;49.326;9.738;2022-08-25T12:12:38;3.08;;;2.90;;
9240;SDS011;53485;49.326;9.738;2022-08-25T12:17:43;2.95;;;2.85;;
9240;SDS011;53485;49.326;9.738;2022-08-25T12:20:10;3.85;;;2.80;;
9240;SDS011;53485;49.326;9.738;2022-08-25T12:22:39;3.50;;;3.20;;
9240;SDS011;53485;49.326;9.738;2022-08-25T12:25:07;2.47;;;2.28;;
9240;SDS011;53485;49.326;9.738;2022-08-25T12:27:54;2.40;;;2.20;;
9240;SDS011;53485;49.326;9.738;2022-08-25T12:30:22;2.70;;;2.50;;
9240;SDS011;53485;49.326;9.738;2022-08-25T12:33:28;3.30;;;2.40;;
9240;SDS011;53485;49.326;9.738;2022-08-25T12:41:12;4.65;;;2.62;;
9240;SDS011;53485;49.326;9.738;2022-08-25T12:43:40;2.40;;;2.30;;
9240;SDS011;53485;49.326;9.738;2022-08-25T12:49:01;4.18;;;2.80;;
9240;SDS011;53485;49.326;9.738;2022-08-25T12:51:44;2.85;;;2.28;;
9240;SDS011;53485;49.326;9.738;2022-08-25T12:54:16;3.00;;;2.80;;
9240;SDS011;53485;49.326;9.738;2022-08-25T12:56:44;6.43;;;2.72;;
9240;SDS011;53485;49.326;9.738;2022-08-25T12:59:17;2.60;;;2.50;;
9240;SDS011;53485;49.326;9.738;2022-08-25T13:01:56;4.95;;;3.10;;
9240;SDS011;53485;49.326;9.738;2022-08-25T13:04:30;3.60;;;3.17;;
9240;SDS011;53485;49.326;9.738;2022-08-25T13:06:59;3.15;;;2.70;;
9240;SDS011;53485;49.326;9.738;2022-08-25T13:09:49;4.47;;;2.92;;
9240;SDS011;53485;49.326;9.738;2022-08-25T13:12:16;6.80;;;2.37;;
9240;SDS011;53485;49.326;9.738;2022-08-25T13:14:45;2.60;;;2.50;;
9240;SDS011;53485;49.326;9.738;2022-08-25T13:17:20;2.42;;;2.22;;
9240;SDS011;53485;49.326;9.738;2022-08-25T13:19:39;2.70;;;2.30;;
9240;SDS011;53485;49.326;9.738;2022-08-25T13:22:11;4.18;;;3.17;;
9240;SDS011;53485;49.326;9.738;2022-08-25T13:24:38;3.30;;;3.10;;
9240;SDS011;53485;49.326;9.738;2022-08-25T13:27:04;2.83;;;2.62;;
9240;SDS011;53485;49.326;9.738;2022-08-25T13:29:31;2.55;;;2.40;;
9240;SDS011;53485;49.326;9.738;2022-08-25T13:32:01;2.70;;;2.50;;
9240;SDS011;53485;49.326;9.738;2022-08-25T13:34:28;3.33;;;3.08;;
9240;SDS011;53485;49.326;9.738;2022-08-25T13:36:54;2.83;;;2.60;;
9240;SDS011;53485;49.326;9.738;2022-08-25T13:39:27;3.50;;;3.03;;
9240;SDS011;53485;49.326;9.738;2022-08-25T13:41:55;2.83;;;2.62;;
9240;SDS011;53485;49.326;9.738;2022-08-25T13:44:22;3.42;;;2.50;;
9240;SDS011;53485;49.326;9.738;2022-08-25T13:49:27;3.10;;;2.70;;
9240;SDS011;53485;49.326;9.738;2022-08-25T13:51:55;3.90;;;2.75;;
9240;SDS011;53485;49.326;9.738;2022-08-25T13:54:26;3.08;;;2.70;;
9240;SDS011;53485;49.326;9.738;2022-08-25T13:56:53;4.00;;;2.85;;
9240;SDS011;53485;49.326;9.738;2022-08-25T13:59:22;4.20;;;3.10;;
9240;SDS011;53485;49.326;9.738;2022-08-25T14:01:49;3.25;;;2.92;;
9240;SDS011;53485;49.326;9.738;2022-08-25T14:04:23;6.00;;;3.00;;
9240;SDS011;53485;49.326;9.738;2022-08-25T14:06:48;3.67;;;2.97;;
9240;SDS011;53485;49.326;9.738;2022-08-25T14:09:16;5.05;;;2.97;;
9240;SDS011;53485;49.326;9.738;2022-08-25T14:11:47;3.47;;;3.20;;
9240;SDS011;53485;49.326;9.738;2022-08-25T14:17:02;2.55;;;2.35;;
9240;SDS011;53485;49.326;9.738;2022-08-25T14:19:31;3.42;;;3.15;;
9240;SDS011;53485;49.326;9.738;2022-08-25T14:21:59;2.53;;;2.33;;
9240;SDS011;53485;49.326;9.738;2022-08-25T14:24:27;3.15;;;2.53;;
9240;SDS011;53485;49.326;9.738;2022-08-25T14:26:53;3.25;;;3.05;;
9240;SDS011;53485;49.326;9.738;2022-08-25T14:29:21;4.93;;;2.87;;
9240;SDS011;53485;49.326;9.738;2022-08-25T14:31:49;2.30;;;2.20;;
9240;SDS011;53485;49.326;9.738;2022-08-25T14:34:18;2.85;;;2.17;;
9240;SDS011;53485;49.326;9.738;2022-08-25T14:36:44;4.80;;;3.03;;
9240;SDS011;53485;49.326;9.738;2022-08-25T14:39:12;2.73;;;2.53;;
9240;SDS011;53485;49.326;9.738;2022-08-25T14:41:40;2.37;;;2.17;;
9240;SDS011;53485;49.326;9.738;2022-08-25T14:44:07;3.50;;;2.90;;
9240;SDS011;53485;49.326;9.738;2022-08-25T14:46:34;3.50;;;3.33;;
9240;SDS011;53485;49.326;9.738;2022-08-25T14:49:01;3.53;;;3.33;;
9240;SDS011;53485;49.326;9.738;2022-08-25T14:51:28;3.40;;;3.10;;
9240;SDS011;53485;49.326;9.738;2022-08-25T14:53:54;4.17;;;3.30;;
9240;SDS011;53485;49.326;9.738;2022-08-25T14:56:21;3.20;;;3.00;;
9240;SDS011;53485;49.326;9.738;2022-08-25T14:58:49;3.87;;;3.17;;
9240;SDS011;53485;49.326;9.738;2022-08-25T15:01:16;2.80;;;2.60;;
9240;SDS011;53485;49.326;9.738;2022-08-25T15:03:44;3.60;;;3.30;;
9240;SDS011;53485;49.326;9.738;2022-08-25T15:06:10;3.10;;;2.90;;
9240;SDS011;53485;49.326;9.738;2022-08-25T15:08:37;4.70;;;3.30;;
9240;SDS011;53485;49.326;9.738;2022-08-25T15:11:10;3.57;;;3.40;;
9240;SDS011;53485;49.326;9.738;2022-08-25T15:13:37;4.60;;;3.30;;
9240;SDS011;53485;49.326;9.738;2022-08-25T15:16:05;3.67;;;3.47;;
9240;SDS011;53485;49.326;9.738;2022-08-25T15:18:32;3.50;;;3.30;;
9240;SDS011;53485;49.326;9.738;2022-08-25T15:20:59;3.93;;;3.63;;
9240;SDS011;53485;49.326;9.738;2022-08-25T15:23:27;3.97;;;3.60;;
9240;SDS011;53485;49.326;9.738;2022-08-25T15:25:54;3.53;;;3.23;;
9240;SDS011;53485;49.326;9.738;2022-08-25T15:28:22;3.63;;;3.37;;
9240;SDS011;53485;49.326;9.738;2022-08-25T15:30:49;3.73;;;3.23;;
9240;SDS011;53485;49.326;9.738;2022-08-25T15:33:17;6.13;;;3.60;;
9240;SDS011;53485;49.326;9.738;2022-08-25T15:35:44;3.87;;;3.53;;
9240;SDS011;53485;49.326;9.738;2022-08-25T15:38:12;3.70;;;3.50;;
9240;SDS011;53485;49.326;9.738;2022-08-25T15:40:40;3.17;;;2.97;;
9240;SDS011;53485;49.326;9.738;2022-08-25T15:43:08;3.70;;;3.33;;
9240;SDS011;53485;49.326;9.738;2022-08-25T15:45:36;3.62;;;3.37;;
9240;SDS011;53485;49.326;9.738;2022-08-25T15:48:04;4.68;;;3.42;;
9240;SDS011;53485;49.326;9.738;2022-08-25T15:50:32;4.45;;;2.70;;
9240;SDS011;53485;49.326;9.738;2022-08-25T15:53:00;3.35;;;3.15;;